sensor_id;sensor_type;location;lat;lon;timestamp;pressure;altitude;pressure_sealevel;temperature;humidity
80934;BME280;70392;51.144;17.050;2023-07-30T00:01:02;99679.28;;;17.57;88.63
80934;BME280;70392;51.144;17.050;2023-07-30T00:03:29;99679.48;;;17.61;88.57
80934;BME280;70392;51.144;17.050;2023-07-30T00:05:56;99680.41;;;17.60;88.29
80934;BME280;70392;51.144;17.050;2023-07-30T00:08:23;99680.27;;;17.62;88.34
80934;BME280;70392;51.144;17.050;2023-07-30T00:10:40;99680.90;;;17.59;88.29
80934;BME280;70392;51.144;17.050;2023-07-30T00:12:57;99683.10;;;17.53;88.08
80934;BME280;70392;51.144;17.050;2023-07-30T00:15:16;99678.56;;;17.49;88.14
80934;BME280;70392;51.144;17.050;2023-07-30T00:17:33;99677.21;;;17.45;88.27
80934;BME280;70392;51.144;17.050;2023-07-30T00:19:51;99682.29;;;17.38;88.03
80934;BME280;70392;51.144;17.050;2023-07-30T00:22:07;99687.15;;;17.30;88.05
80934;BME280;70392;51.144;17.050;2023-07-30T00:24:23;99679.05;;;17.26;88.23
80934;BME280;70392;51.144;17.050;2023-07-30T00:26:39;99679.31;;;17.28;88.37
80934;BME280;70392;51.144;17.050;2023-07-30T00:29:30;99686.98;;;17.25;88.19
80934;BME280;70392;51.144;17.050;2023-07-30T00:31:46;99679.34;;;17.46;87.36
80934;BME280;70392;51.144;17.050;2023-07-30T00:34:06;99692.93;;;17.41;87.22
80934;BME280;70392;51.144;17.050;2023-07-30T00:36:31;99699.91;;;17.36;87.54
80934;BME280;70392;51.144;17.050;2023-07-30T00:38:47;99705.93;;;17.29;87.66
80934;BME280;70392;51.144;17.050;2023-07-30T00:41:03;99703.75;;;17.24;87.92
80934;BME280;70392;51.144;17.050;2023-07-30T00:43:21;99717.76;;;17.18;87.88
80934;BME280;70392;51.144;17.050;2023-07-30T00:45:40;99717.09;;;17.17;88.05
80934;BME280;70392;51.144;17.050;2023-07-30T00:47:57;99717.59;;;17.16;88.22
80934;BME280;70392;51.144;17.050;2023-07-30T00:50:15;99717.18;;;17.12;88.10
80934;BME280;70392;51.144;17.050;2023-07-30T00:52:32;99717.59;;;17.13;88.05
80934;BME280;70392;51.144;17.050;2023-07-30T00:54:54;99711.12;;;17.16;88.01
80934;BME280;70392;51.144;17.050;2023-07-30T00:57:13;99713.21;;;17.13;87.83
80934;BME280;70392;51.144;17.050;2023-07-30T00:59:30;99711.31;;;17.09;87.86
80934;BME280;70392;51.144;17.050;2023-07-30T01:01:51;99715.92;;;17.06;87.88
80934;BME280;70392;51.144;17.050;2023-07-30T01:04:09;99708.39;;;17.09;88.02
80934;BME280;70392;51.144;17.050;2023-07-30T01:06:29;99716.15;;;17.04;87.53
80934;BME280;70392;51.144;17.050;2023-07-30T01:09:05;99714.20;;;17.06;87.71
80934;BME280;70392;51.144;17.050;2023-07-30T01:11:22;99715.90;;;17.04;87.59
80934;BME280;70392;51.144;17.050;2023-07-30T01:13:38;99713.88;;;17.02;87.72
80934;BME280;70392;51.144;17.050;2023-07-30T01:16:00;99708.70;;;16.99;87.63
80934;BME280;70392;51.144;17.050;2023-07-30T01:18:24;99711.06;;;16.98;87.78
80934;BME280;70392;51.144;17.050;2023-07-30T01:20:40;99714.47;;;16.93;87.84
80934;BME280;70392;51.144;17.050;2023-07-30T01:22:58;99714.14;;;16.89;87.81
80934;BME280;70392;51.144;17.050;2023-07-30T01:25:16;99715.84;;;16.85;87.92
80934;BME280;70392;51.144;17.050;2023-07-30T01:27:37;99715.92;;;16.82;87.98
80934;BME280;70392;51.144;17.050;2023-07-30T01:32:28;99714.30;;;16.80;87.87
80934;BME280;70392;51.144;17.050;2023-07-30T01:34:47;99723.62;;;16.75;87.84
80934;BME280;70392;51.144;17.050;2023-07-30T01:37:10;99731.75;;;16.68;87.97
80934;BME280;70392;51.144;17.050;2023-07-30T01:39:32;99734.21;;;16.64;88.13
80934;BME280;70392;51.144;17.050;2023-07-30T01:41:49;99742.51;;;16.61;88.24
80934;BME280;70392;51.144;17.050;2023-07-30T01:44:05;99731.66;;;16.58;88.30
80934;BME280;70392;51.144;17.050;2023-07-30T01:46:24;99742.01;;;16.55;88.48
80934;BME280;70392;51.144;17.050;2023-07-30T01:48:40;99737.39;;;16.55;88.69
80934;BME280;70392;51.144;17.050;2023-07-30T01:51:03;99739.09;;;16.55;88.85
80934;BME280;70392;51.144;17.050;2023-07-30T01:53:21;99737.14;;;16.56;88.78
80934;BME280;70392;51.144;17.050;2023-07-30T01:55:39;99740.70;;;16.55;88.80
80934;BME280;70392;51.144;17.050;2023-07-30T01:58:17;99737.91;;;16.62;88.59
80934;BME280;70392;51.144;17.050;2023-07-30T02:00:34;99742.12;;;16.62;88.57
80934;BME280;70392;51.144;17.050;2023-07-30T02:02:51;99747.91;;;16.57;88.58
80934;BME280;70392;51.144;17.050;2023-07-30T02:05:16;99744.87;;;16.58;88.57
80934;BME280;70392;51.144;17.050;2023-07-30T02:07:34;99745.40;;;16.57;88.56
80934;BME280;70392;51.144;17.050;2023-07-30T02:09:50;99738.85;;;16.56;88.63
80934;BME280;70392;51.144;17.050;2023-07-30T02:12:08;99735.14;;;16.55;88.59
80934;BME280;70392;51.144;17.050;2023-07-30T02:14:26;99741.66;;;16.57;88.47
80934;BME280;70392;51.144;17.050;2023-07-30T02:16:44;99735.94;;;16.55;88.39
80934;BME280;70392;51.144;17.050;2023-07-30T02:19:00;99745.14;;;16.52;88.41
80934;BME280;70392;51.144;17.050;2023-07-30T02:21:16;99744.59;;;16.50;88.57
80934;BME280;70392;51.144;17.050;2023-07-30T02:23:35;99747.23;;;16.48;88.67
80934;BME280;70392;51.144;17.050;2023-07-30T02:25:52;99749.32;;;16.47;88.68
80934;BME280;70392;51.144;17.050;2023-07-30T02:28:08;99748.85;;;16.52;88.65
80934;BME280;70392;51.144;17.050;2023-07-30T02:30:25;99750.16;;;16.50;88.61
80934;BME280;70392;51.144;17.050;2023-07-30T02:32:41;99754.77;;;16.49;88.70
80934;BME280;70392;51.144;17.050;2023-07-30T02:34:58;99758.73;;;16.49;88.68
80934;BME280;70392;51.144;17.050;2023-07-30T02:37:14;99760.74;;;16.50;88.74
80934;BME280;70392;51.144;17.050;2023-07-30T02:39:32;99766.97;;;16.51;88.78
80934;BME280;70392;51.144;17.050;2023-07-30T02:41:48;99767.12;;;16.52;88.75
80934;BME280;70392;51.144;17.050;2023-07-30T02:44:07;99759.59;;;16.54;88.73
80934;BME280;70392;51.144;17.050;2023-07-30T02:46:24;99758.80;;;16.56;88.74
80934;BME280;70392;51.144;17.050;2023-07-30T02:48:40;99758.41;;;16.55;88.71
80934;BME280;70392;51.144;17.050;2023-07-30T02:50:57;99761.88;;;16.56;88.69
80934;BME280;70392;51.144;17.050;2023-07-30T02:53:13;99762.68;;;16.56;88.78
80934;BME280;70392;51.144;17.050;2023-07-30T02:55:32;99771.01;;;16.57;88.56
80934;BME280;70392;51.144;17.050;2023-07-30T02:58:01;99762.98;;;16.59;88.47
80934;BME280;70392;51.144;17.050;2023-07-30T03:00:19;99767.50;;;16.59;88.50
80934;BME280;70392;51.144;17.050;2023-07-30T03:02:37;99772.44;;;16.63;88.33
80934;BME280;70392;51.144;17.050;2023-07-30T03:04:53;99772.32;;;16.63;88.41
80934;BME280;70392;51.144;17.050;2023-07-30T03:07:09;99772.19;;;16.64;88.29
80934;BME280;70392;51.144;17.050;2023-07-30T03:09:26;99770.98;;;16.64;88.29
80934;BME280;70392;51.144;17.050;2023-07-30T03:11:43;99770.59;;;16.64;88.11
80934;BME280;70392;51.144;17.050;2023-07-30T03:13:59;99772.19;;;16.66;88.17
80934;BME280;70392;51.144;17.050;2023-07-30T03:16:16;99769.84;;;16.66;88.18
80934;BME280;70392;51.144;17.050;2023-07-30T03:18:32;99768.95;;;16.69;88.18
80934;BME280;70392;51.144;17.050;2023-07-30T03:20:48;99766.85;;;16.70;88.08
80934;BME280;70392;51.144;17.050;2023-07-30T03:23:04;99772.42;;;16.70;88.00
80934;BME280;70392;51.144;17.050;2023-07-30T03:25:28;99771.80;;;16.74;87.88
80934;BME280;70392;51.144;17.050;2023-07-30T03:27:49;99769.99;;;16.76;87.85
80934;BME280;70392;51.144;17.050;2023-07-30T03:30:06;99757.95;;;16.72;87.76
80934;BME280;70392;51.144;17.050;2023-07-30T03:32:33;99764.36;;;16.83;87.46
80934;BME280;70392;51.144;17.050;2023-07-30T03:34:49;99762.41;;;16.86;87.38
80934;BME280;70392;51.144;17.050;2023-07-30T03:37:05;99757.10;;;16.86;87.40
80934;BME280;70392;51.144;17.050;2023-07-30T03:39:29;99759.56;;;16.91;87.26
80934;BME280;70392;51.144;17.050;2023-07-30T03:41:46;99757.73;;;16.93;87.09
80934;BME280;70392;51.144;17.050;2023-07-30T03:44:04;99759.75;;;16.97;86.95
80934;BME280;70392;51.144;17.050;2023-07-30T03:46:21;99758.86;;;16.99;86.80
80934;BME280;70392;51.144;17.050;2023-07-30T03:48:38;99761.23;;;17.00;86.80
80934;BME280;70392;51.144;17.050;2023-07-30T03:50:55;99756.41;;;17.04;86.78
80934;BME280;70392;51.144;17.050;2023-07-30T03:53:11;99762.91;;;17.07;86.50
80934;BME280;70392;51.144;17.050;2023-07-30T03:55:30;99764.38;;;17.09;86.45
80934;BME280;70392;51.144;17.050;2023-07-30T03:57:48;99768.16;;;17.16;86.29
80934;BME280;70392;51.144;17.050;2023-07-30T04:00:38;99763.31;;;17.19;86.17
80934;BME280;70392;51.144;17.050;2023-07-30T04:02:55;99769.31;;;17.49;85.24
80934;BME280;70392;51.144;17.050;2023-07-30T04:05:11;99773.14;;;17.51;84.82
80934;BME280;70392;51.144;17.050;2023-07-30T04:07:27;99775.23;;;17.47;84.90
80934;BME280;70392;51.144;17.050;2023-07-30T04:09:43;99768.70;;;17.44;85.16
80934;BME280;70392;51.144;17.050;2023-07-30T04:12:01;99770.29;;;17.39;85.25
80934;BME280;70392;51.144;17.050;2023-07-30T04:14:17;99768.64;;;17.37;85.28
80934;BME280;70392;51.144;17.050;2023-07-30T04:16:33;99773.70;;;17.39;85.51
80934;BME280;70392;51.144;17.050;2023-07-30T04:18:50;99778.88;;;17.41;85.46
80934;BME280;70392;51.144;17.050;2023-07-30T04:21:06;99774.21;;;17.38;85.43
80934;BME280;70392;51.144;17.050;2023-07-30T04:23:25;99775.18;;;17.41;85.43
80934;BME280;70392;51.144;17.050;2023-07-30T04:25:42;99772.71;;;17.45;85.40
80934;BME280;70392;51.144;17.050;2023-07-30T04:27:59;99774.97;;;17.47;85.24
80934;BME280;70392;51.144;17.050;2023-07-30T04:30:15;99774.44;;;17.46;85.25
80934;BME280;70392;51.144;17.050;2023-07-30T04:32:37;99778.87;;;17.53;85.16
80934;BME280;70392;51.144;17.050;2023-07-30T04:34:55;99781.80;;;17.56;85.09
80934;BME280;70392;51.144;17.050;2023-07-30T04:37:11;99779.98;;;17.57;85.04
80934;BME280;70392;51.144;17.050;2023-07-30T04:39:29;99782.03;;;17.62;84.85
80934;BME280;70392;51.144;17.050;2023-07-30T04:41:46;99785.00;;;17.66;84.75
80934;BME280;70392;51.144;17.050;2023-07-30T04:44:03;99775.22;;;17.71;84.74
80934;BME280;70392;51.144;17.050;2023-07-30T04:46:19;99784.52;;;17.75;84.64
80934;BME280;70392;51.144;17.050;2023-07-30T04:48:39;99778.89;;;17.81;84.74
80934;BME280;70392;51.144;17.050;2023-07-30T04:50:55;99781.86;;;17.87;84.71
80934;BME280;70392;51.144;17.050;2023-07-30T04:53:11;99786.25;;;17.87;84.56
80934;BME280;70392;51.144;17.050;2023-07-30T04:55:28;99787.11;;;18.01;84.20
80934;BME280;70392;51.144;17.050;2023-07-30T04:57:46;99781.73;;;18.07;84.27
80934;BME280;70392;51.144;17.050;2023-07-30T05:00:03;99783.78;;;18.12;84.23
80934;BME280;70392;51.144;17.050;2023-07-30T05:02:23;99788.20;;;18.21;83.73
80934;BME280;70392;51.144;17.050;2023-07-30T05:04:39;99784.94;;;18.30;83.42
80934;BME280;70392;51.144;17.050;2023-07-30T05:07:04;99782.86;;;18.36;83.20
80934;BME280;70392;51.144;17.050;2023-07-30T05:09:22;99788.23;;;18.48;82.74
80934;BME280;70392;51.144;17.050;2023-07-30T05:11:39;99794.22;;;18.50;82.87
80934;BME280;70392;51.144;17.050;2023-07-30T05:14:15;99794.29;;;18.58;81.98
80934;BME280;70392;51.144;17.050;2023-07-30T05:16:31;99791.15;;;18.63;82.53
80934;BME280;70392;51.144;17.050;2023-07-30T05:18:47;99788.13;;;18.69;82.08
80934;BME280;70392;51.144;17.050;2023-07-30T05:21:08;99796.08;;;18.73;81.85
80934;BME280;70392;51.144;17.050;2023-07-30T05:23:24;99787.50;;;18.78;81.83
80934;BME280;70392;51.144;17.050;2023-07-30T05:26:00;99791.25;;;18.87;82.06
80934;BME280;70392;51.144;17.050;2023-07-30T05:28:16;99789.39;;;18.89;82.21
80934;BME280;70392;51.144;17.050;2023-07-30T05:30:32;99794.59;;;18.97;81.51
80934;BME280;70392;51.144;17.050;2023-07-30T05:32:51;99784.00;;;19.00;81.90
80934;BME280;70392;51.144;17.050;2023-07-30T05:35:08;99782.67;;;19.04;81.26
80934;BME280;70392;51.144;17.050;2023-07-30T05:37:24;99781.24;;;19.10;81.59
80934;BME280;70392;51.144;17.050;2023-07-30T05:39:41;99776.73;;;19.16;81.79
80934;BME280;70392;51.144;17.050;2023-07-30T05:41:57;99784.03;;;19.20;81.34
80934;BME280;70392;51.144;17.050;2023-07-30T05:44:21;99783.14;;;19.27;80.86
80934;BME280;70392;51.144;17.050;2023-07-30T05:46:37;99779.84;;;19.32;80.79
80934;BME280;70392;51.144;17.050;2023-07-30T05:48:56;99784.09;;;19.39;80.27
80934;BME280;70392;51.144;17.050;2023-07-30T05:51:13;99787.58;;;19.42;80.00
80934;BME280;70392;51.144;17.050;2023-07-30T05:53:29;99800.37;;;19.52;79.89
80934;BME280;70392;51.144;17.050;2023-07-30T05:55:50;99803.83;;;19.56;79.65
80934;BME280;70392;51.144;17.050;2023-07-30T05:58:07;99796.23;;;19.61;79.77
80934;BME280;70392;51.144;17.050;2023-07-30T06:00:24;99800.77;;;19.71;79.25
80934;BME280;70392;51.144;17.050;2023-07-30T06:02:40;99803.84;;;19.78;79.52
80934;BME280;70392;51.144;17.050;2023-07-30T06:05:00;99812.88;;;19.84;77.76
80934;BME280;70392;51.144;17.050;2023-07-30T06:07:17;99808.49;;;19.86;78.49
80934;BME280;70392;51.144;17.050;2023-07-30T06:09:33;99813.56;;;19.87;78.92
80934;BME280;70392;51.144;17.050;2023-07-30T06:11:52;99812.88;;;20.00;78.51
80934;BME280;70392;51.144;17.050;2023-07-30T06:14:08;99825.95;;;20.07;79.27
80934;BME280;70392;51.144;17.050;2023-07-30T06:16:24;99819.14;;;20.15;77.76
80934;BME280;70392;51.144;17.050;2023-07-30T06:18:58;99822.45;;;20.19;76.54
80934;BME280;70392;51.144;17.050;2023-07-30T06:21:15;99829.24;;;20.24;77.96
80934;BME280;70392;51.144;17.050;2023-07-30T06:23:31;99829.09;;;20.26;78.18
80934;BME280;70392;51.144;17.050;2023-07-30T06:25:47;99838.71;;;20.30;77.77
80934;BME280;70392;51.144;17.050;2023-07-30T06:28:05;99829.14;;;20.34;77.60
80934;BME280;70392;51.144;17.050;2023-07-30T06:30:23;99841.50;;;20.38;77.96
80934;BME280;70392;51.144;17.050;2023-07-30T06:32:42;99841.89;;;20.46;78.37
80934;BME280;70392;51.144;17.050;2023-07-30T06:34:59;99844.79;;;20.52;77.33
80934;BME280;70392;51.144;17.050;2023-07-30T06:37:17;99851.84;;;20.59;77.37
80934;BME280;70392;51.144;17.050;2023-07-30T06:39:34;99844.49;;;20.68;77.25
80934;BME280;70392;51.144;17.050;2023-07-30T06:41:52;99848.35;;;20.72;76.70
80934;BME280;70392;51.144;17.050;2023-07-30T06:44:08;99845.68;;;20.79;76.46
80934;BME280;70392;51.144;17.050;2023-07-30T06:46:25;99847.27;;;20.83;75.73
80934;BME280;70392;51.144;17.050;2023-07-30T06:48:41;99848.83;;;20.89;76.12
80934;BME280;70392;51.144;17.050;2023-07-30T06:51:00;99845.34;;;20.97;75.43
80934;BME280;70392;51.144;17.050;2023-07-30T06:53:25;99836.00;;;21.07;76.58
80934;BME280;70392;51.144;17.050;2023-07-30T06:55:42;99839.18;;;21.14;75.96
80934;BME280;70392;51.144;17.050;2023-07-30T06:57:58;99845.27;;;21.23;75.59
80934;BME280;70392;51.144;17.050;2023-07-30T07:00:21;99849.09;;;21.32;76.37
80934;BME280;70392;51.144;17.050;2023-07-30T07:02:37;99850.23;;;21.43;76.71
80934;BME280;70392;51.144;17.050;2023-07-30T07:05:03;99852.43;;;21.55;75.62
80934;BME280;70392;51.144;17.050;2023-07-30T07:07:21;99850.95;;;21.61;74.03
80934;BME280;70392;51.144;17.050;2023-07-30T07:09:42;99856.09;;;21.69;75.30
80934;BME280;70392;51.144;17.050;2023-07-30T07:12:00;99849.79;;;21.72;74.43
80934;BME280;70392;51.144;17.050;2023-07-30T07:14:17;99853.61;;;21.79;73.61
80934;BME280;70392;51.144;17.050;2023-07-30T07:16:37;99855.95;;;21.87;74.91
80934;BME280;70392;51.144;17.050;2023-07-30T07:18:53;99857.13;;;21.96;73.87
80934;BME280;70392;51.144;17.050;2023-07-30T07:21:43;99858.92;;;22.06;74.99
80934;BME280;70392;51.144;17.050;2023-07-30T07:24:00;99862.29;;;22.35;72.24
80934;BME280;70392;51.144;17.050;2023-07-30T07:26:16;99861.50;;;22.48;72.11
80934;BME280;70392;51.144;17.050;2023-07-30T07:28:32;99859.37;;;22.47;71.42
80934;BME280;70392;51.144;17.050;2023-07-30T07:30:56;99863.73;;;22.52;72.69
80934;BME280;70392;51.144;17.050;2023-07-30T07:33:13;99869.30;;;22.53;71.20
80934;BME280;70392;51.144;17.050;2023-07-30T07:35:29;99868.59;;;22.63;73.82
80934;BME280;70392;51.144;17.050;2023-07-30T07:37:46;99867.59;;;22.70;73.16
80934;BME280;70392;51.144;17.050;2023-07-30T07:40:05;99859.65;;;22.75;71.24
80934;BME280;70392;51.144;17.050;2023-07-30T07:42:30;99869.59;;;22.82;72.05
80934;BME280;70392;51.144;17.050;2023-07-30T07:44:48;99871.63;;;22.93;71.20
80934;BME280;70392;51.144;17.050;2023-07-30T07:47:24;99869.85;;;23.05;71.88
80934;BME280;70392;51.144;17.050;2023-07-30T07:49:40;99867.39;;;23.12;70.96
80934;BME280;70392;51.144;17.050;2023-07-30T07:51:57;99861.14;;;23.18;70.30
80934;BME280;70392;51.144;17.050;2023-07-30T07:54:13;99852.43;;;23.20;69.55
80934;BME280;70392;51.144;17.050;2023-07-30T07:56:32;99861.73;;;23.27;68.96
80934;BME280;70392;51.144;17.050;2023-07-30T07:58:48;99856.60;;;23.28;70.01
80934;BME280;70392;51.144;17.050;2023-07-30T08:01:05;99852.05;;;23.40;69.96
80934;BME280;70392;51.144;17.050;2023-07-30T08:03:24;99846.90;;;23.46;70.33
80934;BME280;70392;51.144;17.050;2023-07-30T08:05:42;99856.66;;;23.58;68.69
80934;BME280;70392;51.144;17.050;2023-07-30T08:07:58;99861.48;;;23.66;70.31
80934;BME280;70392;51.144;17.050;2023-07-30T08:10:26;99859.88;;;23.76;69.99
80934;BME280;70392;51.144;17.050;2023-07-30T08:12:43;99853.73;;;23.84;68.17
80934;BME280;70392;51.144;17.050;2023-07-30T08:14:59;99857.55;;;23.89;67.96
80934;BME280;70392;51.144;17.050;2023-07-30T08:17:16;99855.60;;;23.92;67.16
80934;BME280;70392;51.144;17.050;2023-07-30T08:20:07;99856.56;;;24.00;68.77
80934;BME280;70392;51.144;17.050;2023-07-30T08:22:24;99855.68;;;24.33;66.04
80934;BME280;70392;51.144;17.050;2023-07-30T08:24:43;99850.04;;;24.41;66.63
80934;BME280;70392;51.144;17.050;2023-07-30T08:27:00;99856.48;;;24.42;65.42
80934;BME280;70392;51.144;17.050;2023-07-30T08:29:19;99854.30;;;24.43;66.50
80934;BME280;70392;51.144;17.050;2023-07-30T08:31:35;99854.82;;;24.52;66.33
80934;BME280;70392;51.144;17.050;2023-07-30T08:33:52;99856.11;;;24.59;65.49
80934;BME280;70392;51.144;17.050;2023-07-30T08:36:08;99852.70;;;24.61;64.73
80934;BME280;70392;51.144;17.050;2023-07-30T08:38:24;99854.48;;;24.69;66.82
80934;BME280;70392;51.144;17.050;2023-07-30T08:41:01;99851.88;;;24.78;66.32
80934;BME280;70392;51.144;17.050;2023-07-30T08:43:20;99858.38;;;24.89;66.45
80934;BME280;70392;51.144;17.050;2023-07-30T08:45:36;99862.34;;;25.01;64.06
80934;BME280;70392;51.144;17.050;2023-07-30T08:47:52;99855.56;;;25.10;63.47
80934;BME280;70392;51.144;17.050;2023-07-30T08:50:10;99860.38;;;25.23;63.58
80934;BME280;70392;51.144;17.050;2023-07-30T08:52:29;99853.63;;;25.33;64.13
80934;BME280;70392;51.144;17.050;2023-07-30T08:54:46;99851.34;;;25.45;62.06
80934;BME280;70392;51.144;17.050;2023-07-30T08:57:19;99861.74;;;25.56;60.82
80934;BME280;70392;51.144;17.050;2023-07-30T08:59:42;99857.27;;;25.68;62.67
80934;BME280;70392;51.144;17.050;2023-07-30T09:02:01;99854.29;;;25.80;60.64
80934;BME280;70392;51.144;17.050;2023-07-30T09:04:21;99856.38;;;25.99;60.78
80934;BME280;70392;51.144;17.050;2023-07-30T09:06:38;99856.13;;;26.12;61.57
80934;BME280;70392;51.144;17.050;2023-07-30T09:08:57;99854.16;;;26.30;59.95
80934;BME280;70392;51.144;17.050;2023-07-30T09:11:13;99853.50;;;26.40;59.04
80934;BME280;70392;51.144;17.050;2023-07-30T09:13:39;99850.09;;;26.58;58.86
80934;BME280;70392;51.144;17.050;2023-07-30T09:15:56;99848.89;;;26.77;61.10
80934;BME280;70392;51.144;17.050;2023-07-30T09:18:16;99854.05;;;26.95;61.54
80934;BME280;70392;51.144;17.050;2023-07-30T09:20:39;99847.27;;;27.12;61.45
80934;BME280;70392;51.144;17.050;2023-07-30T09:22:59;99847.02;;;27.21;59.80
80934;BME280;70392;51.144;17.050;2023-07-30T09:25:19;99851.29;;;27.26;56.04
80934;BME280;70392;51.144;17.050;2023-07-30T09:27:53;99845.40;;;27.15;56.26
80934;BME280;70392;51.144;17.050;2023-07-30T09:30:10;99848.20;;;27.04;55.56
80934;BME280;70392;51.144;17.050;2023-07-30T09:32:31;99849.41;;;27.09;56.49
80934;BME280;70392;51.144;17.050;2023-07-30T09:35:08;99848.20;;;27.17;55.63
80934;BME280;70392;51.144;17.050;2023-07-30T09:37:27;99833.83;;;27.26;54.40
80934;BME280;70392;51.144;17.050;2023-07-30T09:39:43;99844.84;;;27.36;55.89
80934;BME280;70392;51.144;17.050;2023-07-30T09:42:00;99844.12;;;27.46;54.65
80934;BME280;70392;51.144;17.050;2023-07-30T09:44:18;99836.91;;;27.62;54.32
80934;BME280;70392;51.144;17.050;2023-07-30T09:46:43;99834.91;;;27.74;52.27
80934;BME280;70392;51.144;17.050;2023-07-30T09:49:01;99836.15;;;27.97;52.35
80934;BME280;70392;51.144;17.050;2023-07-30T09:51:34;99837.41;;;28.14;53.68
80934;BME280;70392;51.144;17.050;2023-07-30T09:53:52;99831.31;;;28.24;55.46
80934;BME280;70392;51.144;17.050;2023-07-30T09:56:09;99820.96;;;28.39;54.68
80934;BME280;70392;51.144;17.050;2023-07-30T09:58:31;99820.29;;;28.63;54.59
80934;BME280;70392;51.144;17.050;2023-07-30T10:00:50;99820.20;;;28.85;49.71
80934;BME280;70392;51.144;17.050;2023-07-30T10:03:07;99815.09;;;29.16;49.46
80934;BME280;70392;51.144;17.050;2023-07-30T10:05:31;99826.44;;;29.40;48.30
80934;BME280;70392;51.144;17.050;2023-07-30T10:10:15;99827.76;;;29.78;46.68
80934;BME280;70392;51.144;17.050;2023-07-30T10:12:34;99823.82;;;29.56;47.04
80934;BME280;70392;51.144;17.050;2023-07-30T10:14:51;99815.08;;;29.25;50.88
80934;BME280;70392;51.144;17.050;2023-07-30T10:17:17;99820.69;;;28.94;50.43
80934;BME280;70392;51.144;17.050;2023-07-30T10:19:34;99823.84;;;28.62;47.69
80934;BME280;70392;51.144;17.050;2023-07-30T10:21:50;99818.95;;;28.23;50.50
80934;BME280;70392;51.144;17.050;2023-07-30T10:24:10;99816.85;;;28.09;52.17
80934;BME280;70392;51.144;17.050;2023-07-30T10:26:33;99814.13;;;27.96;51.73
80934;BME280;70392;51.144;17.050;2023-07-30T10:29:21;99816.30;;;27.99;56.40
80934;BME280;70392;51.144;17.050;2023-07-30T10:36:59;99814.98;;;27.61;54.75
80934;BME280;70392;51.144;17.050;2023-07-30T10:39:19;99818.86;;;27.32;51.56
80934;BME280;70392;51.144;17.050;2023-07-30T10:41:37;99821.30;;;26.70;62.33
80934;BME280;70392;51.144;17.050;2023-07-30T10:43:54;99812.71;;;25.69;61.71
80934;BME280;70392;51.144;17.050;2023-07-30T10:46:13;99813.79;;;25.08;65.07
80934;BME280;70392;51.144;17.050;2023-07-30T10:48:36;99808.59;;;24.98;66.32
80934;BME280;70392;51.144;17.050;2023-07-30T10:50:55;99805.02;;;25.32;68.13
80934;BME280;70392;51.144;17.050;2023-07-30T10:53:12;99808.83;;;25.80;66.82
80934;BME280;70392;51.144;17.050;2023-07-30T10:55:31;99811.30;;;26.68;65.82
80934;BME280;70392;51.144;17.050;2023-07-30T10:57:56;99813.83;;;26.91;65.35
80934;BME280;70392;51.144;17.050;2023-07-30T11:00:13;99810.66;;;26.94;64.37
80934;BME280;70392;51.144;17.050;2023-07-30T11:02:29;99803.13;;;27.82;62.31
80934;BME280;70392;51.144;17.050;2023-07-30T11:04:46;99798.08;;;29.03;60.52
80934;BME280;70392;51.144;17.050;2023-07-30T11:07:04;99796.09;;;30.19;55.93
80934;BME280;70392;51.144;17.050;2023-07-30T11:09:28;99794.78;;;30.61;57.89
80934;BME280;70392;51.144;17.050;2023-07-30T11:11:47;99798.17;;;30.36;55.25
80934;BME280;70392;51.144;17.050;2023-07-30T11:14:04;99791.14;;;30.45;57.37
80934;BME280;70392;51.144;17.050;2023-07-30T11:16:21;99795.48;;;30.53;57.21
80934;BME280;70392;51.144;17.050;2023-07-30T11:18:38;99792.69;;;31.13;54.70
80934;BME280;70392;51.144;17.050;2023-07-30T11:21:09;99792.24;;;31.27;53.34
80934;BME280;70392;51.144;17.050;2023-07-30T11:23:44;99788.95;;;31.45;50.85
80934;BME280;70392;51.144;17.050;2023-07-30T11:26:03;99785.61;;;31.69;50.65
80934;BME280;70392;51.144;17.050;2023-07-30T11:28:37;99789.11;;;31.95;48.19
80934;BME280;70392;51.144;17.050;2023-07-30T11:30:58;99795.33;;;32.47;48.13
80934;BME280;70392;51.144;17.050;2023-07-30T11:33:16;99785.89;;;32.67;44.47
80934;BME280;70392;51.144;17.050;2023-07-30T11:35:33;99790.63;;;32.86;45.82
80934;BME280;70392;51.144;17.050;2023-07-30T11:37:51;99785.45;;;32.70;44.39
80934;BME280;70392;51.144;17.050;2023-07-30T11:40:11;99785.45;;;32.41;46.03
80934;BME280;70392;51.144;17.050;2023-07-30T11:42:30;99785.66;;;31.95;46.99
80934;BME280;70392;51.144;17.050;2023-07-30T11:44:47;99783.40;;;31.34;49.30
80934;BME280;70392;51.144;17.050;2023-07-30T11:47:06;99775.22;;;30.68;48.77
80934;BME280;70392;51.144;17.050;2023-07-30T11:49:22;99775.28;;;30.14;49.80
80934;BME280;70392;51.144;17.050;2023-07-30T11:51:49;99771.37;;;29.69;49.79
80934;BME280;70392;51.144;17.050;2023-07-30T11:54:07;99772.99;;;29.28;51.92
80934;BME280;70392;51.144;17.050;2023-07-30T11:56:28;99777.26;;;28.74;53.88
80934;BME280;70392;51.144;17.050;2023-07-30T11:58:48;99777.15;;;28.31;52.99
80934;BME280;70392;51.144;17.050;2023-07-30T12:01:04;99782.05;;;28.08;54.54
80934;BME280;70392;51.144;17.050;2023-07-30T12:03:41;99787.30;;;27.75;54.67
80934;BME280;70392;51.144;17.050;2023-07-30T12:06:04;99798.77;;;27.40;52.08
80934;BME280;70392;51.144;17.050;2023-07-30T12:08:26;99805.39;;;26.96;53.39
80934;BME280;70392;51.144;17.050;2023-07-30T12:10:47;99804.38;;;26.42;54.13
80934;BME280;70392;51.144;17.050;2023-07-30T12:13:20;99807.34;;;25.92;55.09
80934;BME280;70392;51.144;17.050;2023-07-30T12:15:38;99807.75;;;25.86;56.40
80934;BME280;70392;51.144;17.050;2023-07-30T12:17:54;99802.44;;;25.83;57.05
80934;BME280;70392;51.144;17.050;2023-07-30T12:20:28;99789.94;;;25.94;55.95